createdAt,value
2018-09-26T00:01:29.118Z,4.30
2018-09-26T00:04:02.866Z,4.10
2018-09-26T00:06:31.869Z,4.90
2018-09-26T00:09:01.057Z,4.23
2018-09-26T00:11:30.148Z,5.20
2018-09-26T00:13:59.218Z,4.60
2018-09-26T00:16:28.307Z,4.60
2018-09-26T00:18:57.391Z,5.00
2018-09-26T00:21:26.424Z,4.37
2018-09-26T00:23:55.467Z,4.00
2018-09-26T00:26:24.527Z,4.23
2018-09-26T00:28:53.519Z,4.20
2018-09-26T00:31:22.811Z,4.00
2018-09-26T00:33:51.862Z,3.70
2018-09-26T00:36:21.001Z,3.80
2018-09-26T00:38:50.060Z,3.10
2018-09-26T00:41:19.210Z,3.50
2018-09-26T00:43:48.662Z,4.20
2018-09-26T00:46:17.936Z,3.33
2018-09-26T00:48:47.252Z,3.60
2018-09-26T00:51:16.422Z,3.83
2018-09-26T00:53:45.598Z,2.97
2018-09-26T00:56:14.738Z,3.60
2018-09-26T00:58:44.074Z,2.80
2018-09-26T01:01:13.283Z,3.07
2018-09-26T01:03:42.447Z,3.67
2018-09-26T01:06:11.878Z,3.70
2018-09-26T01:08:41.049Z,3.83
2018-09-26T01:11:10.267Z,3.97
2018-09-26T01:13:39.635Z,3.70
2018-09-26T01:16:08.912Z,3.80
2018-09-26T01:18:38.116Z,4.13
2018-09-26T01:21:07.579Z,4.90
2018-09-26T01:23:37.051Z,4.07
2018-09-26T01:26:06.206Z,4.67
2018-09-26T01:28:35.583Z,4.83
2018-09-26T01:31:04.954Z,3.97
2018-09-26T01:33:34.326Z,4.80
2018-09-26T01:36:03.627Z,5.13
2018-09-26T01:38:32.741Z,4.00
2018-09-26T01:41:01.967Z,4.83
2018-09-26T01:43:31.211Z,4.15
2018-09-26T01:46:00.436Z,4.10
2018-09-26T01:48:29.717Z,4.17
2018-09-26T01:50:59.036Z,3.50
2018-09-26T01:53:28.276Z,5.03
2018-09-26T01:55:57.502Z,4.53
2018-09-26T01:58:26.776Z,3.17
2018-09-26T02:00:55.968Z,3.60
2018-09-26T02:03:25.363Z,3.50
2018-09-26T02:05:54.702Z,3.97
2018-09-26T02:08:24.181Z,3.57
2018-09-26T02:10:53.618Z,3.13
2018-09-26T02:13:22.958Z,3.70
2018-09-26T02:15:52.270Z,3.43
2018-09-26T02:18:21.814Z,3.50
2018-09-26T02:20:51.246Z,3.13
2018-09-26T02:23:20.485Z,3.30
2018-09-26T02:25:49.632Z,3.43
2018-09-26T02:28:25.566Z,3.20
2018-09-26T02:30:54.940Z,5.13
2018-09-26T02:33:24.047Z,3.63
2018-09-26T02:35:53.114Z,3.20
2018-09-26T02:38:22.155Z,4.13
2018-09-26T02:40:51.246Z,3.40
2018-09-26T02:43:20.278Z,3.20
2018-09-26T02:45:49.397Z,3.77
2018-09-26T02:48:23.737Z,3.90
2018-09-26T02:50:53.102Z,3.77
2018-09-26T02:53:22.501Z,4.43
2018-09-26T02:55:52.076Z,3.67
2018-09-26T02:58:21.300Z,3.50
2018-09-26T03:00:50.538Z,3.53
2018-09-26T03:03:19.791Z,3.60
2018-09-26T03:05:49.093Z,4.40
2018-09-26T03:08:18.242Z,3.60
2018-09-26T03:10:47.489Z,4.27
2018-09-26T03:13:16.637Z,4.00
2018-09-26T03:15:46.028Z,3.60
2018-09-26T03:18:15.531Z,4.60
2018-09-26T03:20:45.280Z,4.17
2018-09-26T03:23:14.396Z,3.47
2018-09-26T03:25:43.659Z,3.90
2018-09-26T03:28:12.965Z,3.90
2018-09-26T03:30:42.404Z,4.40
2018-09-26T03:33:11.694Z,3.20
2018-09-26T03:35:41.018Z,3.00
2018-09-26T03:38:10.265Z,3.47
2018-09-26T03:40:39.379Z,3.93
2018-09-26T03:43:08.943Z,3.87
2018-09-26T03:45:38.210Z,3.87
2018-09-26T03:48:07.594Z,3.90
2018-09-26T03:50:36.886Z,3.50
2018-09-26T03:53:06.573Z,3.53
2018-09-26T03:55:35.808Z,3.77
2018-09-26T03:58:04.970Z,3.70
2018-09-26T04:00:34.187Z,3.70
2018-09-26T04:03:03.342Z,3.43
2018-09-26T04:05:32.664Z,3.33
2018-09-26T04:08:01.794Z,4.10
2018-09-26T04:10:31.066Z,4.37
2018-09-26T04:13:00.372Z,3.67
2018-09-26T04:15:29.533Z,4.33
2018-09-26T04:17:58.790Z,4.30
2018-09-26T04:20:28.204Z,5.50
2018-09-26T04:22:57.575Z,5.00
2018-09-26T04:25:27.003Z,4.20
2018-09-26T04:27:56.284Z,4.10
2018-09-26T04:30:25.527Z,3.60
2018-09-26T04:32:55.032Z,3.10
2018-09-26T04:40:20.713Z,2.30
2018-09-26T04:42:49.988Z,3.40
2018-09-26T04:45:19.166Z,3.53
2018-09-26T04:47:48.446Z,2.90
2018-09-26T04:50:17.740Z,3.03
2018-09-26T04:52:47.090Z,2.60
2018-09-26T04:55:16.431Z,2.63
2018-09-26T04:57:46.123Z,3.00
2018-09-26T05:00:15.918Z,2.80
2018-09-26T05:02:45.228Z,2.30
2018-09-26T05:05:14.379Z,2.20
2018-09-26T05:07:43.449Z,2.77
2018-09-26T05:10:12.569Z,2.70
2018-09-26T05:12:41.610Z,2.50
2018-09-26T05:15:10.609Z,2.47
2018-09-26T05:17:39.607Z,2.63
2018-09-26T05:20:08.614Z,2.63
2018-09-26T05:22:37.629Z,2.50
2018-09-26T05:25:06.896Z,3.07
2018-09-26T05:27:36.175Z,2.73
2018-09-26T05:30:05.323Z,2.90
2018-09-26T05:32:34.458Z,3.20
2018-09-26T05:35:03.459Z,3.13
2018-09-26T05:37:32.578Z,2.53
2018-09-26T05:40:01.879Z,2.13
2018-09-26T05:42:31.094Z,2.53
2018-09-26T05:45:00.303Z,2.43
2018-09-26T05:47:30.335Z,2.47
2018-09-26T05:49:59.565Z,2.50
2018-09-26T05:52:28.930Z,2.30
2018-09-26T05:54:58.136Z,2.50
2018-09-26T05:57:27.252Z,2.03
2018-09-26T05:59:56.448Z,1.70
2018-09-26T06:02:26.341Z,2.50
2018-09-26T06:04:55.481Z,2.20
2018-09-26T06:07:24.619Z,1.70
2018-09-26T06:09:53.910Z,2.20
2018-09-26T06:12:23.218Z,2.33
2018-09-26T06:14:52.659Z,2.50
2018-09-26T06:17:22.147Z,2.00
2018-09-26T06:19:51.501Z,1.83
2018-09-26T06:22:20.838Z,1.93
2018-09-26T06:24:50.091Z,1.80
2018-09-26T06:27:19.430Z,2.30
2018-09-26T06:29:48.591Z,1.80
2018-09-26T06:32:17.812Z,1.50
2018-09-26T06:34:47.142Z,2.10
2018-09-26T06:37:17.244Z,1.70
2018-09-26T06:39:47.010Z,1.90
2018-09-26T06:42:16.123Z,2.03
2018-09-26T06:44:45.459Z,1.90
2018-09-26T06:47:14.676Z,1.80
2018-09-26T06:49:43.810Z,2.03
2018-09-26T06:52:12.995Z,2.03
2018-09-26T06:54:42.298Z,3.50
2018-09-26T06:57:11.513Z,4.13
2018-09-26T06:59:41.064Z,3.40
2018-09-26T07:02:10.596Z,2.90
2018-09-26T07:04:39.937Z,2.20
2018-09-26T07:07:09.171Z,3.00
2018-09-26T07:09:38.794Z,2.20
2018-09-26T07:12:08.618Z,2.17
2018-09-26T07:14:37.800Z,2.07
2018-09-26T07:17:07.085Z,1.87
2018-09-26T07:19:36.586Z,2.00
2018-09-26T07:22:05.764Z,2.50
2018-09-26T07:24:35.430Z,2.50
2018-09-26T07:27:04.716Z,1.87
2018-09-26T07:29:33.955Z,1.90
2018-09-26T07:32:03.134Z,1.50
2018-09-26T07:34:37.604Z,1.90
2018-09-26T07:37:07.050Z,1.63
2018-09-26T07:39:36.913Z,1.73
2018-09-26T07:42:06.402Z,2.10
2018-09-26T07:44:36.010Z,2.07
2018-09-26T07:47:05.386Z,2.20
2018-09-26T07:49:34.637Z,1.90
2018-09-26T07:52:04.222Z,2.13
2018-09-26T07:54:33.362Z,1.87
2018-09-26T07:57:02.550Z,1.80
2018-09-26T07:59:31.948Z,1.97
2018-09-26T08:02:01.231Z,2.37
2018-09-26T08:04:30.414Z,2.20
2018-09-26T08:06:59.660Z,1.47
2018-09-26T08:09:29.152Z,2.10
2018-09-26T08:11:58.411Z,1.77
2018-09-26T08:14:27.740Z,2.10
2018-09-26T08:16:57.214Z,1.75
2018-09-26T08:19:26.471Z,2.10
2018-09-26T08:21:55.804Z,2.23
2018-09-26T08:24:26.069Z,2.17
2018-09-26T08:26:55.239Z,1.90
2018-09-26T08:29:24.343Z,1.90
2018-09-26T09:38:55.597Z,2.47
2018-09-26T09:41:25.024Z,3.00
2018-09-26T09:43:54.485Z,2.10
2018-09-26T09:46:24.138Z,1.90
2018-09-26T09:48:54.666Z,1.40
2018-09-26T09:51:23.992Z,2.07
2018-09-26T09:53:53.250Z,1.57
2018-09-26T09:56:22.583Z,2.63
2018-09-26T09:58:52.654Z,2.63
2018-09-26T10:01:27.978Z,2.90
2018-09-26T10:03:58.556Z,1.90
2018-09-26T10:06:28.185Z,1.93
2018-09-26T10:08:57.672Z,1.50
2018-09-26T10:11:26.975Z,1.80
2018-09-26T10:13:56.570Z,1.53
2018-09-26T10:16:25.847Z,1.77
2018-09-26T10:18:55.328Z,1.60
2018-09-26T10:21:24.666Z,1.53
2018-09-26T10:23:53.917Z,1.60
2018-09-26T10:26:23.311Z,1.70
2018-09-26T10:28:52.847Z,1.57
2018-09-26T10:31:21.970Z,1.83
2018-09-26T10:33:51.159Z,1.40
2018-09-26T10:36:21.031Z,1.40
2018-09-26T10:38:50.286Z,1.90
2018-09-26T10:41:19.343Z,1.67
2018-09-26T10:43:48.935Z,1.40
2018-09-26T10:46:18.146Z,1.70
2018-09-26T10:48:47.259Z,1.77
2018-09-26T10:51:16.701Z,1.40
2018-09-26T10:53:45.832Z,1.90
2018-09-26T10:56:15.310Z,1.47
2018-09-26T10:58:44.459Z,1.80
2018-09-26T11:01:13.721Z,1.70
2018-09-26T11:03:43.096Z,1.83
2018-09-26T11:06:12.245Z,3.60
2018-09-26T11:08:41.222Z,1.40
2018-09-26T11:11:10.347Z,1.40
2018-09-26T11:13:39.646Z,1.50
2018-09-26T11:16:09.376Z,1.53
2018-09-26T11:18:38.481Z,2.10
2018-09-26T11:21:07.676Z,1.53
2018-09-26T11:23:36.975Z,1.43
2018-09-26T11:26:06.301Z,1.50
2018-09-26T11:28:36.154Z,1.40
2018-09-26T11:31:05.273Z,1.67
2018-09-26T11:33:34.379Z,1.40
2018-09-26T11:36:03.629Z,1.50
2018-09-26T11:38:32.719Z,1.40
2018-09-26T11:41:01.884Z,1.50
2018-09-26T11:43:31.014Z,1.70
2018-09-26T11:46:01.267Z,1.50
2018-09-26T11:48:30.629Z,1.43
2018-09-26T11:50:59.868Z,1.40
2018-09-26T11:53:29.347Z,1.37
2018-09-26T11:55:58.581Z,1.40
2018-09-26T11:58:27.891Z,1.67
2018-09-26T12:00:57.071Z,1.60
2018-09-26T12:03:26.226Z,1.33
2018-09-26T12:25:43.100Z,1.40
2018-09-26T12:28:12.322Z,1.40
2018-09-26T12:30:41.422Z,1.93
2018-09-26T12:33:10.526Z,1.20
2018-09-26T12:38:07.980Z,1.50
2018-09-26T12:40:37.239Z,1.50
2018-09-26T12:43:06.622Z,1.93
2018-09-26T12:45:35.978Z,1.00
2018-09-26T12:48:05.312Z,1.25
2018-09-26T12:50:34.499Z,1.60
2018-09-26T12:53:04.160Z,1.33
2018-09-26T13:00:32.042Z,1.30
2018-09-26T13:03:01.305Z,1.73
2018-09-26T13:22:50.622Z,1.20
2018-09-26T13:25:19.870Z,1.90
2018-09-26T13:37:42.711Z,1.80
2018-09-26T13:40:12.075Z,1.80
2018-09-26T13:45:09.713Z,1.60
2018-09-26T13:47:38.865Z,1.20
2018-09-26T13:52:36.628Z,1.20
2018-09-26T13:55:05.932Z,1.10
2018-09-26T13:57:35.156Z,1.40
2018-09-26T14:00:04.407Z,1.33
2018-09-26T14:02:33.780Z,1.63
2018-09-26T14:05:03.192Z,1.33
2018-09-26T14:07:32.320Z,1.30
2018-09-26T14:10:01.563Z,1.40
2018-09-26T14:12:30.759Z,1.37
2018-09-26T14:15:00.195Z,1.50
2018-09-26T14:17:29.379Z,1.80
2018-09-26T14:19:58.642Z,1.27
2018-09-26T14:22:27.992Z,1.23
2018-09-26T14:24:57.322Z,1.40
2018-09-26T14:27:26.806Z,1.50
2018-09-26T14:29:56.419Z,1.40
2018-09-26T14:32:25.668Z,1.63
2018-09-26T14:34:54.901Z,1.57
2018-09-26T14:37:24.284Z,1.80
2018-09-26T14:39:53.744Z,1.77
2018-09-26T14:42:23.058Z,1.90
2018-09-26T14:44:52.447Z,1.53
2018-09-26T14:47:21.817Z,1.33
2018-09-26T14:49:51.320Z,1.50
2018-09-26T14:52:20.677Z,1.53
2018-09-26T14:54:50.019Z,1.37
2018-09-26T14:57:19.315Z,1.43
2018-09-26T14:59:49.838Z,2.00
2018-09-26T15:02:19.141Z,2.00
2018-09-26T15:04:48.496Z,1.50
2018-09-26T15:07:17.906Z,1.60
2018-09-26T15:09:47.949Z,1.67
2018-09-26T15:12:18.030Z,1.50
2018-09-26T15:14:47.211Z,1.60
2018-09-26T15:17:16.564Z,1.80
2018-09-26T15:19:46.560Z,2.00
2018-09-26T15:22:15.846Z,1.95
2018-09-26T15:24:45.376Z,1.60
2018-09-26T15:27:14.579Z,1.77
2018-09-26T15:29:43.937Z,1.75
2018-09-26T15:32:13.228Z,2.05
2018-09-26T15:34:42.540Z,1.50
2018-09-26T15:37:12.364Z,1.55
2018-09-26T15:39:41.559Z,1.70
2018-09-26T15:42:10.730Z,1.43
2018-09-26T15:44:39.956Z,1.87
2018-09-26T15:47:09.431Z,1.60
2018-09-26T15:49:38.638Z,1.67
2018-09-26T15:52:07.826Z,1.73
2018-09-26T15:54:37.047Z,1.60
2018-09-26T15:57:06.249Z,1.70
2018-09-26T15:59:35.374Z,1.73
2018-09-26T16:02:04.728Z,1.60
2018-09-26T16:04:34.388Z,1.87
2018-09-26T16:07:03.625Z,1.80
2018-09-26T16:09:32.640Z,1.50
2018-09-26T16:12:01.840Z,2.20
2018-09-26T16:14:30.987Z,2.07
2018-09-26T16:17:00.304Z,1.90
2018-09-26T16:21:58.152Z,2.00
2018-09-26T16:24:27.767Z,1.75
2018-09-26T16:29:38.745Z,1.97
2018-09-26T16:34:36.242Z,1.80
2018-09-26T16:39:33.889Z,1.90
2018-09-26T16:47:00.351Z,1.80
2018-09-26T16:49:29.707Z,2.10
2018-09-26T16:56:56.172Z,2.10
2018-09-26T16:59:25.533Z,2.00
2018-09-26T17:06:52.671Z,2.10
2018-09-26T17:09:22.327Z,2.80
2018-09-26T17:11:51.525Z,3.90
2018-09-26T17:16:49.148Z,2.80
2018-09-26T17:19:18.433Z,2.13
2018-09-26T17:24:16.272Z,2.30
2018-09-26T17:26:46.267Z,2.40
2018-09-26T17:29:15.416Z,1.80
2018-09-26T17:31:44.624Z,1.80
2018-09-26T17:34:13.890Z,1.93
2018-09-26T17:36:43.006Z,2.70
2018-09-26T17:39:12.072Z,3.00
2018-09-26T17:41:41.192Z,2.00
2018-09-26T17:44:10.378Z,2.00
2018-09-26T17:46:39.717Z,2.00
2018-09-26T17:49:09.004Z,2.10
2018-09-26T18:56:00.080Z,2.80
2018-09-26T18:58:29.527Z,2.10
2018-09-26T19:00:58.694Z,2.10
2018-09-26T19:03:27.962Z,2.43
2018-09-26T19:05:57.081Z,2.27
2018-09-26T19:08:26.179Z,2.67
2018-09-26T19:10:55.728Z,2.60
2018-09-26T19:13:24.811Z,2.07
2018-09-26T19:15:53.963Z,2.70
2018-09-26T19:18:23.099Z,2.70
2018-09-26T19:20:53.229Z,2.60
2018-09-26T19:23:22.559Z,2.63
2018-09-26T19:25:51.793Z,2.80
2018-09-26T19:28:21.463Z,2.37
2018-09-26T19:30:52.253Z,3.33
2018-09-26T19:33:22.059Z,2.80
2018-09-26T19:48:50.848Z,2.57
2018-09-26T19:51:21.169Z,3.20
2018-09-26T19:53:50.545Z,3.17
2018-09-26T19:56:20.195Z,2.85
2018-09-26T20:03:51.749Z,3.30
2018-09-26T20:06:20.990Z,3.30
2018-09-26T20:08:50.352Z,3.27
2018-09-26T20:11:19.628Z,3.37
2018-09-26T20:13:48.922Z,3.20
2018-09-26T20:16:18.293Z,3.13
2018-09-26T20:18:47.450Z,3.30
2018-09-26T20:21:16.684Z,3.20
2018-09-26T20:23:46.275Z,3.30
2018-09-26T20:26:15.544Z,2.70
2018-09-26T20:28:44.761Z,3.70
2018-09-26T20:31:14.225Z,3.10
2018-09-26T20:33:43.425Z,3.27
2018-09-26T20:36:12.890Z,3.20
2018-09-26T20:38:42.400Z,3.17
2018-09-26T20:41:11.743Z,3.40
2018-09-26T20:43:41.405Z,3.30
2018-09-26T20:46:11.371Z,3.40
2018-09-26T20:48:40.790Z,2.87
2018-09-26T20:51:10.233Z,3.07
2018-09-26T20:53:39.551Z,3.03
2018-09-26T20:56:08.902Z,3.23
2018-09-26T20:58:38.488Z,2.90
2018-09-26T21:01:08.014Z,2.73
2018-09-26T21:03:37.443Z,2.50
2018-09-26T21:06:07.097Z,3.30
2018-09-26T21:08:36.767Z,3.43
2018-09-26T21:11:06.195Z,3.40
2018-09-26T21:13:35.619Z,3.30
2018-09-26T21:16:05.012Z,3.87
2018-09-26T21:18:34.478Z,3.70
2018-09-26T21:21:03.845Z,3.90
2018-09-26T21:23:33.042Z,3.43
2018-09-26T21:26:02.229Z,3.30
2018-09-26T21:28:31.470Z,4.40
2018-09-26T21:31:00.692Z,3.30
2018-09-26T21:33:30.078Z,4.20
2018-09-26T21:35:59.284Z,3.10
2018-09-26T21:38:28.575Z,3.90
2018-09-26T21:40:57.880Z,3.53
2018-09-26T21:43:27.236Z,3.10
2018-09-26T21:45:56.508Z,3.13
2018-09-26T21:48:25.906Z,3.33
2018-09-26T21:50:55.256Z,4.10
2018-09-26T21:53:24.579Z,3.20
2018-09-26T21:55:54.054Z,4.20
2018-09-26T21:58:23.271Z,3.50
2018-09-26T22:00:57.854Z,3.27
2018-09-26T22:03:27.456Z,4.77
2018-09-26T22:05:57.049Z,3.00
2018-09-26T22:08:26.761Z,3.43
2018-09-26T22:10:56.232Z,3.30
2018-09-26T22:13:25.950Z,4.00
2018-09-26T22:15:55.351Z,2.97
2018-09-26T22:18:24.817Z,3.30
2018-09-26T22:20:54.809Z,3.53
2018-09-26T22:23:24.421Z,3.20
2018-09-26T22:25:53.693Z,3.57
2018-09-26T22:28:23.116Z,3.13
2018-09-26T22:30:54.141Z,3.37
2018-09-26T22:33:23.490Z,3.10
2018-09-26T22:35:52.723Z,3.10
2018-09-26T22:38:22.057Z,3.90
2018-09-26T22:40:51.399Z,3.20
2018-09-26T22:43:20.671Z,3.80
2018-09-26T22:45:49.940Z,4.33
2018-09-26T22:48:19.340Z,3.80
2018-09-26T22:50:48.572Z,4.00
2018-09-26T22:53:17.838Z,4.07
2018-09-26T22:55:47.049Z,3.97
2018-09-26T22:58:16.359Z,3.70
2018-09-26T23:00:45.772Z,4.00
2018-09-26T23:03:15.145Z,4.20
2018-09-26T23:05:44.461Z,4.47
2018-09-26T23:08:14.310Z,3.30
2018-09-26T23:10:43.623Z,3.77
2018-09-26T23:13:12.854Z,3.80
2018-09-26T23:15:42.226Z,3.60
2018-09-26T23:18:11.499Z,3.90
2018-09-26T23:20:40.835Z,4.10
2018-09-26T23:23:10.203Z,3.77
2018-09-26T23:25:39.581Z,3.70
2018-09-26T23:28:08.962Z,4.13
2018-09-26T23:30:38.192Z,3.70
2018-09-26T23:33:07.528Z,3.60
2018-09-26T23:35:36.840Z,4.00
2018-09-26T23:38:06.170Z,3.73
2018-09-26T23:40:35.457Z,3.97
2018-09-26T23:43:04.835Z,3.60
2018-09-26T23:45:34.175Z,3.73
2018-09-26T23:48:03.584Z,3.70
2018-09-26T23:50:32.941Z,3.50
2018-09-26T23:53:02.293Z,4.80
2018-09-26T23:55:31.554Z,3.57
2018-09-26T23:58:00.892Z,3.83
